createdAt,value
2019-02-27T00:01:39.665Z,103.00
2019-02-27T00:04:29.533Z,103.10
2019-02-27T00:07:12.032Z,97.20
2019-02-27T00:10:05.907Z,105.37
2019-02-27T00:13:06.059Z,105.50
2019-02-27T00:15:56.197Z,105.67
2019-02-27T00:18:38.950Z,107.47
2019-02-27T00:21:28.735Z,112.90
2019-02-27T00:24:11.924Z,103.85
2019-02-27T00:27:01.718Z,114.28
2019-02-27T00:29:46.244Z,109.90
2019-02-27T00:32:36.036Z,112.70
2019-02-27T00:35:16.756Z,114.45
2019-02-27T00:38:06.534Z,99.07
2019-02-27T00:40:49.496Z,98.17
2019-02-27T00:43:39.248Z,98.97
2019-02-27T00:46:21.562Z,93.40
2019-02-27T00:49:11.911Z,103.42
2019-02-27T00:51:56.610Z,98.58
2019-02-27T00:54:46.774Z,111.75
2019-02-27T00:57:27.513Z,105.27
2019-02-27T01:00:39.319Z,99.83
2019-02-27T01:03:41.122Z,100.30
2019-02-27T01:09:55.973Z,96.12
2019-02-27T01:12:39.123Z,92.82
2019-02-27T01:15:29.221Z,102.40
2019-02-27T01:18:11.639Z,110.20
2019-02-27T01:21:20.809Z,100.55
2019-02-27T01:24:03.607Z,95.53
2019-02-27T01:26:53.779Z,87.70
2019-02-27T01:29:27.813Z,93.10
2019-02-27T01:32:17.591Z,102.12
2019-02-27T01:35:28.755Z,95.15
2019-02-27T01:38:11.762Z,94.32
2019-02-27T01:41:01.590Z,91.70
2019-02-27T01:43:44.281Z,90.30
2019-02-27T01:46:34.360Z,101.18
2019-02-27T01:49:16.933Z,90.92
2019-02-27T01:55:09.032Z,96.85
2019-02-27T02:01:29.835Z,99.13
2019-02-27T02:04:10.680Z,95.45
2019-02-27T02:07:00.870Z,97.53
2019-02-27T02:09:43.825Z,93.07
2019-02-27T02:12:27.071Z,94.85
2019-02-27T02:15:37.893Z,99.03
2019-02-27T02:18:48.137Z,90.53
2019-02-27T02:22:19.999Z,97.42
2019-02-27T02:25:22.106Z,84.85
2019-02-27T02:28:50.991Z,88.33
2019-02-27T02:31:55.526Z,88.78
2019-02-27T02:35:24.111Z,74.20
2019-02-27T02:38:12.322Z,69.35
2019-02-27T02:41:39.140Z,87.10
2019-02-27T02:44:26.414Z,88.62
2019-02-27T02:47:56.029Z,78.40
2019-02-27T02:51:00.964Z,80.53
2019-02-27T02:54:12.395Z,86.92
2019-02-27T02:57:22.971Z,86.35
2019-02-27T03:00:53.479Z,75.45
2019-02-27T03:03:55.356Z,83.70
2019-02-27T03:07:23.927Z,72.40
2019-02-27T03:10:08.825Z,62.73
2019-02-27T03:13:19.614Z,51.35
2019-02-27T03:16:05.725Z,50.98
2019-02-27T03:19:41.423Z,57.85
2019-02-27T03:22:23.025Z,60.03
2019-02-27T03:25:51.604Z,58.38
2019-02-27T03:28:41.816Z,55.03
2019-02-27T03:32:41.248Z,74.60
2019-02-27T03:35:43.754Z,67.35
2019-02-27T03:38:59.214Z,65.52
2019-02-27T03:42:20.137Z,80.47
2019-02-27T03:45:49.040Z,84.60
2019-02-27T03:48:51.655Z,81.57
2019-02-27T03:52:02.828Z,109.20
2019-02-27T03:55:05.161Z,88.27
2019-02-27T03:58:30.600Z,83.33
2019-02-27T04:02:05.830Z,102.92
2019-02-27T04:04:45.970Z,101.55
2019-02-27T04:08:15.160Z,103.12
2019-02-27T04:10:58.348Z,104.20
2019-02-27T04:13:48.502Z,113.42
2019-02-27T04:16:31.224Z,100.12
2019-02-27T04:19:21.019Z,114.05
2019-02-27T04:22:04.154Z,130.57
2019-02-27T04:28:01.671Z,120.65
2019-02-27T04:30:52.069Z,118.90
2019-02-27T04:33:59.541Z,92.67
2019-02-27T04:36:47.207Z,127.85
2019-02-27T04:39:48.477Z,101.72
2019-02-27T04:42:31.259Z,103.62
2019-02-27T04:45:21.430Z,99.13
2019-02-27T04:48:06.216Z,102.75
2019-02-27T04:50:56.516Z,98.78
2019-02-27T04:53:41.282Z,84.90
2019-02-27T04:56:24.381Z,91.57
2019-02-27T04:59:18.201Z,58.02
2019-02-27T05:02:16.527Z,72.17
2019-02-27T05:04:58.999Z,52.83
2019-02-27T05:07:48.786Z,64.22
2019-02-27T05:10:31.481Z,55.78
2019-02-27T05:13:21.973Z,58.60
2019-02-27T05:16:04.982Z,64.47
2019-02-27T05:22:26.187Z,57.53
2019-02-27T05:25:14.448Z,58.95
2019-02-27T05:28:15.357Z,54.55
2019-02-27T05:31:05.834Z,49.63
2019-02-27T05:33:48.623Z,56.88
2019-02-27T05:36:39.021Z,52.67
2019-02-27T05:39:41.543Z,49.70
2019-02-27T05:42:31.924Z,55.63
2019-02-27T05:45:14.423Z,49.42
2019-02-27T05:48:04.218Z,44.70
2019-02-27T05:50:47.388Z,45.45
2019-02-27T05:57:04.432Z,46.15
2019-02-27T05:59:54.196Z,44.88
2019-02-27T06:02:37.063Z,45.63
2019-02-27T06:08:29.151Z,44.85
2019-02-27T06:11:19.251Z,44.03
2019-02-27T06:14:02.058Z,45.03
2019-02-27T06:16:52.093Z,52.33
2019-02-27T06:19:35.169Z,45.88
2019-02-27T06:22:27.249Z,47.15
2019-02-27T06:25:29.241Z,46.15
2019-02-27T06:28:19.424Z,42.13
2019-02-27T06:31:22.581Z,45.55
2019-02-27T06:34:12.771Z,51.08
2019-02-27T06:36:56.839Z,44.77
2019-02-27T06:39:46.987Z,41.85
2019-02-27T06:42:29.744Z,40.60
2019-02-27T06:45:19.901Z,43.78
2019-02-27T06:48:02.544Z,44.25
2019-02-27T06:50:52.575Z,38.35
2019-02-27T06:53:35.652Z,48.25
2019-02-27T06:56:25.416Z,45.15
2019-02-27T06:59:08.191Z,44.23
2019-02-27T07:01:57.974Z,47.08
2019-02-27T07:04:41.291Z,51.88
2019-02-27T07:11:09.957Z,51.37
2019-02-27T07:13:49.988Z,57.73
2019-02-27T07:19:49.703Z,63.48
2019-02-27T07:22:39.726Z,65.05
2019-02-27T07:25:23.609Z,54.48
2019-02-27T07:28:13.694Z,58.10
2019-02-27T07:31:08.199Z,52.80
2019-02-27T07:33:57.996Z,54.33
2019-02-27T07:36:40.846Z,65.60
2019-02-27T07:39:50.005Z,50.28
2019-02-27T07:42:32.679Z,66.47
2019-02-27T07:48:51.354Z,64.87
2019-02-27T07:51:41.149Z,72.25
2019-02-27T07:54:23.659Z,62.85
2019-02-27T07:57:13.438Z,62.17
2019-02-27T07:59:55.778Z,61.28
2019-02-27T08:02:45.862Z,54.23
2019-02-27T08:05:29.182Z,53.10
2019-02-27T08:07:59.584Z,59.45
2019-02-27T08:10:30.207Z,71.07
2019-02-27T08:13:00.676Z,59.20
2019-02-27T08:15:31.307Z,57.38
2019-02-27T08:18:01.670Z,52.75
2019-02-27T08:20:32.297Z,58.45
2019-02-27T08:23:02.925Z,51.75
2019-02-27T08:25:33.280Z,56.37
2019-02-27T08:28:03.679Z,52.03
2019-02-27T08:30:34.301Z,60.15
2019-02-27T08:33:08.146Z,58.48
2019-02-27T08:35:37.020Z,43.80
2019-02-27T08:38:07.348Z,62.50
2019-02-27T08:40:37.823Z,60.28
2019-02-27T08:43:10.266Z,55.43
2019-02-27T08:45:40.246Z,60.75
2019-02-27T08:48:10.840Z,55.15
2019-02-27T08:50:41.464Z,55.88
2019-02-27T08:53:11.806Z,58.30
2019-02-27T08:55:42.677Z,63.25
2019-02-27T08:58:13.157Z,56.85
2019-02-27T09:00:47.087Z,51.65
2019-02-27T09:03:20.180Z,55.15
2019-02-27T09:05:51.094Z,52.25
2019-02-27T09:08:20.670Z,50.78
2019-02-27T09:10:51.005Z,52.13
2019-02-27T09:13:21.562Z,49.13
2019-02-27T09:15:51.888Z,51.70
2019-02-27T09:18:22.962Z,49.83
2019-02-27T09:20:54.260Z,51.88
2019-02-27T09:23:24.978Z,54.55
2019-02-27T09:25:57.439Z,51.48
2019-02-27T09:28:28.015Z,55.58
2019-02-27T09:31:03.333Z,55.70
2019-02-27T09:33:38.571Z,49.27
2019-02-27T09:36:02.741Z,53.60
2019-02-27T09:38:33.450Z,54.18
2019-02-27T09:41:03.789Z,50.25
2019-02-27T09:43:34.813Z,52.58
2019-02-27T09:46:05.442Z,53.33
2019-02-27T09:48:36.788Z,55.90
2019-02-27T09:51:07.787Z,47.83
2019-02-27T09:53:38.693Z,47.03
2019-02-27T09:56:09.034Z,57.43
2019-02-27T09:58:45.252Z,55.13
2019-02-27T10:01:17.186Z,44.20
2019-02-27T10:03:47.849Z,53.13
2019-02-27T10:06:18.197Z,55.57
2019-02-27T10:08:48.859Z,48.60
2019-02-27T10:11:22.114Z,48.80
2019-02-27T10:13:51.898Z,55.10
2019-02-27T10:16:22.318Z,49.47
2019-02-27T10:18:55.553Z,45.93
2019-02-27T10:21:24.962Z,57.30
2019-02-27T10:23:55.371Z,54.10
2019-02-27T10:26:25.742Z,50.80
2019-02-27T10:28:56.105Z,49.80
2019-02-27T10:31:27.003Z,56.57
2019-02-27T10:33:58.037Z,48.97
2019-02-27T10:36:28.405Z,47.57
2019-02-27T10:38:59.416Z,46.40
2019-02-27T10:41:30.853Z,45.00
2019-02-27T10:44:01.726Z,49.03
2019-02-27T10:46:32.406Z,48.03
2019-02-27T10:49:02.773Z,45.03
2019-02-27T10:51:33.560Z,43.83
2019-02-27T10:54:05.475Z,47.00
2019-02-27T10:56:36.141Z,48.90
2019-02-27T10:59:06.486Z,47.10
2019-02-27T11:01:37.082Z,49.17
2019-02-27T11:04:07.736Z,49.27
2019-02-27T11:06:38.432Z,49.57
2019-02-27T11:09:19.133Z,50.53
2019-02-27T11:11:53.714Z,49.90
2019-02-27T11:14:21.541Z,51.13
2019-02-27T11:16:52.204Z,48.27
2019-02-27T11:19:22.811Z,53.07
2019-02-27T11:21:53.441Z,48.50
2019-02-27T11:24:24.787Z,47.67
2019-02-27T11:26:56.934Z,46.33
2019-02-27T11:29:27.333Z,46.67
2019-02-27T11:31:58.105Z,45.10
2019-02-27T11:34:28.714Z,36.60
2019-02-27T11:36:59.054Z,38.00
2019-02-27T11:39:30.543Z,36.80
2019-02-27T11:42:01.762Z,37.50
2019-02-27T11:44:32.126Z,34.13
2019-02-27T11:47:02.592Z,33.90
2019-02-27T11:49:33.212Z,33.13
2019-02-27T11:52:04.235Z,36.30
2019-02-27T11:54:34.654Z,31.37
2019-02-27T11:57:05.288Z,36.10
2019-02-27T11:59:35.648Z,33.37
2019-02-27T12:02:06.164Z,35.90
2019-02-27T12:04:37.049Z,35.13
2019-02-27T12:07:07.689Z,38.00
2019-02-27T12:09:38.384Z,37.43
2019-02-27T12:12:10.429Z,35.10
2019-02-27T12:14:41.206Z,35.43
2019-02-27T12:17:12.196Z,37.40
2019-02-27T12:19:45.176Z,40.97
2019-02-27T12:22:14.934Z,34.60
2019-02-27T12:24:45.648Z,34.97
2019-02-27T12:27:24.321Z,38.43
2019-02-27T12:29:48.318Z,31.90
2019-02-27T12:32:19.383Z,33.40
2019-02-27T12:34:51.162Z,32.60
2019-02-27T12:37:28.196Z,41.40
2019-02-27T12:39:53.564Z,35.13
2019-02-27T12:42:24.274Z,33.80
2019-02-27T12:44:55.008Z,38.40
2019-02-27T12:47:25.413Z,31.33
2019-02-27T12:49:55.755Z,38.60
2019-02-27T12:52:26.392Z,32.90
2019-02-27T12:54:59.110Z,34.27
2019-02-27T12:57:29.155Z,30.10
2019-02-27T12:59:59.517Z,35.10
2019-02-27T13:02:35.593Z,33.87
2019-02-27T13:05:01.961Z,38.80
2019-02-27T13:07:32.305Z,36.47
2019-02-27T13:10:04.210Z,37.83
2019-02-27T13:12:34.848Z,37.20
2019-02-27T13:15:09.062Z,34.07
2019-02-27T13:17:39.732Z,29.27
2019-02-27T13:20:34.338Z,33.80
2019-02-27T13:23:05.439Z,29.00
2019-02-27T13:25:35.891Z,35.77
2019-02-27T13:28:06.528Z,35.03
2019-02-27T13:30:41.385Z,32.57
2019-02-27T13:33:09.893Z,29.93
2019-02-27T13:35:40.494Z,30.93
2019-02-27T13:38:11.378Z,31.20
2019-02-27T13:40:41.997Z,29.60
2019-02-27T13:43:12.656Z,28.90
2019-02-27T13:45:47.261Z,32.03
2019-02-27T13:48:15.609Z,23.57
2019-02-27T13:50:46.521Z,27.73
2019-02-27T13:53:17.076Z,29.70
2019-02-27T13:55:48.234Z,22.93
2019-02-27T13:58:19.561Z,21.50
2019-02-27T14:00:53.663Z,22.00
2019-02-27T14:03:22.811Z,20.63
2019-02-27T14:05:53.176Z,26.20
2019-02-27T14:08:23.587Z,23.87
2019-02-27T14:10:54.079Z,20.97
2019-02-27T14:13:24.718Z,20.90
2019-02-27T14:15:55.155Z,23.00
2019-02-27T14:18:25.519Z,20.60
2019-02-27T14:20:56.122Z,26.97
2019-02-27T14:23:27.312Z,28.53
2019-02-27T14:25:57.861Z,22.97
2019-02-27T14:28:28.250Z,23.95
2019-02-27T14:30:58.607Z,20.57
2019-02-27T14:33:29.512Z,17.70
2019-02-27T14:36:00.124Z,21.67
2019-02-27T14:38:30.819Z,19.00
2019-02-27T14:41:01.856Z,26.77
2019-02-27T14:43:32.174Z,19.00
2019-02-27T14:46:02.862Z,21.47
2019-02-27T14:48:33.232Z,20.13
2019-02-27T14:51:07.432Z,27.80
2019-02-27T14:53:35.645Z,18.40
2019-02-27T14:56:09.051Z,24.07
2019-02-27T14:58:38.554Z,23.53
2019-02-27T15:01:11.865Z,21.97
2019-02-27T15:03:41.371Z,21.27
2019-02-27T15:06:11.712Z,21.93
2019-02-27T15:08:42.127Z,20.13
2019-02-27T15:11:14.801Z,21.43
2019-02-27T15:13:44.533Z,20.63
2019-02-27T15:16:16.204Z,20.20
2019-02-27T15:18:46.986Z,20.97
2019-02-27T15:21:17.353Z,19.40
2019-02-27T15:23:48.064Z,29.23
2019-02-27T15:26:18.430Z,25.20
2019-02-27T15:28:48.792Z,26.10
2019-02-27T15:31:21.357Z,20.53
2019-02-27T15:33:51.195Z,17.30
2019-02-27T15:36:21.999Z,18.93
2019-02-27T15:38:52.398Z,24.20
2019-02-27T15:41:23.303Z,21.40
2019-02-27T15:44:00.113Z,17.50
2019-02-27T15:46:25.997Z,27.43
2019-02-27T15:48:56.429Z,17.27
2019-02-27T15:51:28.546Z,23.60
2019-02-27T15:53:59.134Z,17.03
2019-02-27T15:56:29.824Z,19.67
2019-02-27T15:59:05.071Z,18.73
2019-02-27T16:01:33.162Z,16.17
2019-02-27T16:04:03.498Z,19.43
2019-02-27T16:06:34.164Z,18.93
2019-02-27T16:09:06.684Z,20.97
2019-02-27T16:11:37.050Z,22.60
2019-02-27T16:14:10.153Z,21.47
2019-02-27T16:16:39.783Z,17.57
2019-02-27T16:19:10.790Z,21.30
2019-02-27T16:21:41.843Z,21.33
2019-02-27T16:24:12.818Z,20.37
2019-02-27T16:26:43.735Z,23.40
2019-02-27T16:29:14.100Z,20.60
2019-02-27T16:31:44.482Z,24.57
2019-02-27T16:34:14.825Z,20.27
2019-02-27T16:36:46.944Z,19.87
2019-02-27T16:39:17.965Z,25.43
2019-02-27T16:41:48.644Z,22.73
2019-02-27T16:44:21.728Z,20.53
2019-02-27T16:46:51.044Z,25.50
2019-02-27T16:49:21.654Z,26.57
2019-02-27T16:51:52.691Z,23.30
2019-02-27T16:54:24.093Z,44.30
2019-02-27T16:56:55.154Z,48.20
2019-02-27T16:59:26.084Z,34.93
2019-02-27T17:01:56.469Z,24.27
2019-02-27T17:04:26.813Z,29.37
2019-02-27T17:06:57.167Z,48.67
2019-02-27T17:09:28.767Z,36.77
2019-02-27T17:11:59.138Z,54.60
2019-02-27T17:14:29.560Z,56.77
2019-02-27T17:16:59.970Z,37.40
2019-02-27T17:19:33.065Z,33.27
2019-02-27T17:22:02.933Z,37.30
2019-02-27T17:24:33.633Z,35.70
2019-02-27T17:27:04.005Z,34.73
2019-02-27T17:29:34.364Z,51.13
2019-02-27T17:32:04.787Z,33.33
2019-02-27T17:34:35.486Z,44.67
2019-02-27T17:37:07.123Z,48.43
2019-02-27T17:39:37.530Z,36.57
2019-02-27T17:42:08.146Z,44.90
2019-02-27T17:44:38.536Z,40.07
2019-02-27T17:47:08.918Z,41.23
2019-02-27T17:49:39.822Z,32.13
2019-02-27T17:52:11.543Z,47.97
2019-02-27T17:54:42.021Z,48.10
2019-02-27T17:57:12.387Z,46.60
2019-02-27T17:59:43.041Z,46.93
2019-02-27T18:02:13.377Z,43.37
2019-02-27T18:04:47.692Z,44.50
2019-02-27T18:07:16.406Z,35.10
2019-02-27T18:09:46.801Z,43.47
2019-02-27T18:12:17.455Z,37.87
2019-02-27T18:14:48.088Z,57.10
2019-02-27T18:17:18.732Z,68.57
2019-02-27T18:19:50.321Z,37.23
2019-02-27T18:22:21.479Z,33.47
2019-02-27T18:24:51.871Z,60.57
2019-02-27T18:27:24.848Z,88.07
2019-02-27T18:29:54.581Z,115.00
2019-02-27T18:32:25.243Z,101.17
2019-02-27T18:34:55.904Z,147.87
2019-02-27T18:37:26.794Z,92.30
2019-02-27T18:39:57.205Z,87.07
2019-02-27T18:42:27.534Z,73.03
2019-02-27T18:44:58.157Z,52.67
2019-02-27T18:47:28.792Z,49.47
2019-02-27T18:49:59.412Z,57.70
2019-02-27T18:52:29.737Z,35.10
2019-02-27T18:55:00.623Z,36.93
2019-02-27T18:57:31.207Z,41.93
2019-02-27T19:00:02.483Z,37.40
2019-02-27T19:02:32.877Z,27.47
2019-02-27T19:05:06.720Z,28.57
2019-02-27T19:07:36.262Z,27.57
2019-02-27T19:10:10.704Z,25.87
2019-02-27T19:12:41.070Z,21.63
2019-02-27T19:15:18.694Z,22.87
2019-02-27T19:17:49.392Z,21.17
2019-02-27T19:20:24.994Z,21.90
2019-02-27T19:22:55.580Z,27.57
2019-02-27T19:25:26.198Z,20.17
2019-02-27T19:27:56.826Z,25.83
2019-02-27T19:30:27.892Z,25.67
2019-02-27T19:33:01.882Z,20.25
2019-02-27T19:35:30.870Z,29.23
2019-02-27T19:38:01.242Z,34.40
2019-02-27T19:40:31.611Z,25.75
2019-02-27T19:43:05.108Z,20.17
2019-02-27T19:45:36.641Z,24.12
2019-02-27T19:48:07.328Z,21.97
2019-02-27T19:50:37.990Z,18.55
2019-02-27T19:53:08.734Z,20.80
2019-02-27T19:55:39.397Z,21.62
2019-02-27T19:58:10.007Z,21.60
2019-02-27T20:00:48.004Z,20.25
2019-02-27T20:03:12.952Z,22.93
2019-02-27T20:05:43.315Z,18.85
2019-02-27T20:08:13.770Z,18.25
2019-02-27T20:10:44.454Z,24.40
2019-02-27T20:13:14.969Z,23.20
2019-02-27T20:15:46.546Z,21.55
2019-02-27T20:18:17.005Z,21.77
2019-02-27T20:20:47.868Z,17.48
2019-02-27T20:23:18.479Z,20.80
2019-02-27T20:25:48.802Z,19.80
2019-02-27T20:28:19.612Z,19.75
2019-02-27T20:30:50.251Z,18.98
2019-02-27T20:33:22.399Z,19.37
2019-02-27T20:35:55.684Z,19.98
2019-02-27T20:38:25.720Z,20.05
2019-02-27T20:40:56.477Z,16.60
2019-02-27T20:43:29.552Z,19.50
2019-02-27T20:45:59.211Z,20.52
2019-02-27T20:48:35.268Z,19.92
2019-02-27T20:51:06.920Z,26.95
2019-02-27T20:53:37.221Z,17.37
2019-02-27T20:56:07.557Z,17.80
2019-02-27T20:58:38.176Z,21.65
2019-02-27T21:01:11.039Z,20.12
2019-02-27T21:03:40.864Z,21.42
2019-02-27T21:06:12.826Z,14.60
2019-02-27T21:08:43.555Z,22.73
2019-02-27T21:11:13.906Z,21.05
2019-02-27T21:13:44.306Z,30.77
2019-02-27T21:16:14.963Z,21.40
2019-02-27T21:18:45.326Z,17.90
2019-02-27T21:21:16.952Z,22.10
2019-02-27T21:23:48.837Z,19.27
2019-02-27T21:26:19.993Z,18.77
2019-02-27T21:28:58.736Z,18.25
2019-02-27T21:31:27.648Z,25.92
2019-02-27T21:33:56.589Z,20.95
2019-02-27T21:36:27.198Z,14.50
2019-02-27T21:38:58.074Z,21.93
2019-02-27T21:41:28.710Z,17.17
2019-02-27T21:43:59.049Z,18.57
2019-02-27T21:46:30.212Z,21.33
2019-02-27T21:49:00.544Z,12.78
2019-02-27T21:51:31.813Z,20.55
2019-02-27T21:54:03.959Z,12.73
2019-02-27T21:56:34.166Z,15.68
2019-02-27T21:59:05.793Z,14.95
2019-02-27T22:01:36.206Z,18.50
2019-02-27T22:04:09.759Z,13.62
2019-02-27T22:06:38.647Z,15.45
2019-02-27T22:09:10.253Z,14.33
2019-02-27T22:11:41.037Z,21.17
2019-02-27T22:14:12.012Z,19.75
2019-02-27T22:16:42.343Z,16.77
2019-02-27T22:19:12.697Z,21.02
2019-02-27T22:21:43.056Z,19.65
2019-02-27T22:24:13.797Z,14.00
2019-02-27T22:26:44.718Z,18.57
2019-02-27T22:29:15.376Z,17.30
2019-02-27T22:31:45.800Z,19.98
2019-02-27T22:34:16.215Z,14.85
2019-02-27T22:36:47.114Z,19.92
2019-02-27T22:39:17.769Z,14.50
2019-02-27T22:41:48.519Z,22.15
2019-02-27T22:44:19.186Z,19.05
2019-02-27T22:46:49.807Z,18.27
2019-02-27T22:49:20.136Z,22.87
2019-02-27T22:51:50.829Z,17.60
2019-02-27T22:54:21.491Z,17.45
2019-02-27T22:56:52.816Z,16.80
2019-02-27T22:59:24.292Z,19.23
2019-02-27T23:01:56.013Z,16.37
2019-02-27T23:04:30.029Z,19.55
2019-02-27T23:07:00.884Z,21.40
2019-02-27T23:09:32.890Z,20.40
2019-02-27T23:12:04.732Z,17.90
2019-02-27T23:14:35.864Z,18.62
2019-02-27T23:17:07.057Z,19.42
2019-02-27T23:19:38.542Z,14.93
2019-02-27T23:22:09.901Z,19.05
2019-02-27T23:24:43.833Z,19.55
2019-02-27T23:27:14.531Z,18.10
2019-02-27T23:29:46.792Z,16.25
2019-02-27T23:32:18.008Z,19.60
2019-02-27T23:34:52.552Z,18.35
2019-02-27T23:37:23.009Z,16.30
2019-02-27T23:39:53.858Z,17.30
2019-02-27T23:42:24.189Z,19.10
2019-02-27T23:44:54.819Z,26.02
2019-02-27T23:47:25.405Z,18.45
2019-02-27T23:49:55.886Z,22.35
2019-02-27T23:52:26.275Z,16.48
2019-02-27T23:54:56.687Z,19.52
2019-02-27T23:57:27.310Z,16.42
2019-02-27T23:59:57.692Z,20.20
